Time;durP1;ratioP1;P1;durP2;ratioP2;P2;SDS_P1;SDS_P2;PMS_P1;PMS_P2;Temp;Humidity;BMP_temperature;BMP_pressure;BME280_temperature;BME280_humidity;BME280_pressure;Samples;Min_cycle;Max_cycle;Signal;HPM_P1;HPM_P2
2021/09/21 00:00:42;;;;;;;5.57;1.40;;;11.60;99.90;;;;;;4936580;29;20527;-92
2021/09/21 00:03:08;;;;;;;4.30;1.58;;;11.50;99.90;;;;;;4936521;29;20024;-93
2021/09/21 00:05:34;;;;;;;6.70;1.67;;;11.40;99.90;;;;;;4920025;29;20023;-92
2021/09/21 00:08:00;;;;;;;5.53;1.65;;;11.30;99.90;;;;;;4937020;29;20035;-92
2021/09/21 00:10:26;;;;;;;4.90;1.60;;;11.30;99.90;;;;;;4919825;29;20036;-92
2021/09/21 00:12:53;;;;;;;4.45;1.50;;;11.30;99.90;;;;;;4920024;29;20031;-93
2021/09/21 00:15:20;;;;;;;6.45;1.65;;;11.20;99.90;;;;;;4936881;29;20074;-95
2021/09/21 00:17:47;;;;;;;5.15;1.88;;;11.20;99.90;;;;;;4920137;29;20028;-92
2021/09/21 00:20:14;;;;;;;3.80;1.45;;;11.20;99.90;;;;;;4919810;29;20036;-92
2021/09/21 00:22:41;;;;;;;6.55;2.08;;;11.20;99.90;;;;;;4937067;29;20043;-93
2021/09/21 00:25:08;;;;;;;10.32;2.60;;;11.30;99.90;;;;;;4920530;29;20402;-91
2021/09/21 00:27:34;;;;;;;7.80;2.55;;;11.30;99.90;;;;;;4920287;29;20139;-93
2021/09/21 00:30:00;;;;;;;5.90;1.70;;;11.40;99.90;;;;;;4920415;29;20434;-93
2021/09/21 00:32:26;;;;;;;7.68;2.13;;;11.50;99.90;;;;;;4920271;29;20031;-91
2021/09/21 00:34:53;;;;;;;5.20;1.60;;;11.40;99.90;;;;;;4920450;29;20034;-92
2021/09/21 00:37:20;;;;;;;5.85;2.13;;;11.40;99.90;;;;;;4920329;29;20055;-93
2021/09/21 00:39:47;;;;;;;4.40;1.50;;;11.40;99.90;;;;;;4937879;29;20027;-92
2021/09/21 00:42:22;;;;;;;6.35;1.88;;;11.30;99.90;;;;;;4926986;29;20035;-93
2021/09/21 00:45:03;;;;;;;3.38;1.90;;;11.30;99.90;;;;;;4927779;29;20493;-93
2021/09/21 00:47:29;;;;;;;6.55;1.60;;;11.30;99.90;;;;;;4940065;29;20048;-93
2021/09/21 00:49:55;;;;;;;3.50;1.30;;;11.30;99.90;;;;;;4922767;29;20635;-92
2021/09/21 00:52:21;;;;;;;4.63;1.70;;;11.30;99.90;;;;;;4921146;29;20122;-92
2021/09/21 00:54:47;;;;;;;5.93;1.50;;;11.30;99.90;;;;;;4920288;29;20110;-92
2021/09/21 00:57:13;;;;;;;5.30;2.25;;;11.20;99.90;;;;;;4920539;29;20035;-93
2021/09/21 00:59:39;;;;;;;4.78;1.50;;;11.10;99.90;;;;;;4919789;29;20031;-92
2021/09/21 01:02:05;;;;;;;5.97;1.50;;;11.10;99.90;;;;;;4920047;29;20039;-92
2021/09/21 01:04:32;;;;;;;5.50;1.60;;;11.10;99.90;;;;;;4919895;29;20031;-93
2021/09/21 01:06:58;;;;;;;4.30;1.95;;;11.10;99.90;;;;;;4919471;29;20059;-91
2021/09/21 01:09:26;;;;;;;4.57;1.48;;;11.20;99.90;;;;;;4936432;29;20035;-92
2021/09/21 01:11:55;;;;;;;8.75;1.85;;;11.20;99.90;;;;;;4919562;29;20033;-92
2021/09/21 01:14:21;;;;;;;5.10;1.70;;;11.20;99.90;;;;;;4919540;29;20066;-93
2021/09/21 01:16:48;;;;;;;4.20;1.67;;;11.20;99.90;;;;;;4919384;29;20032;-92
2021/09/21 01:19:15;;;;;;;5.20;2.08;;;11.30;99.90;;;;;;4919578;29;20035;-93
2021/09/21 01:21:42;;;;;;;3.30;1.80;;;11.30;99.90;;;;;;4935728;29;20043;-90
2021/09/21 01:24:09;;;;;;;4.90;1.65;;;11.20;99.90;;;;;;4919100;29;20031;-92
2021/09/21 01:26:34;;;;;;;5.85;1.92;;;11.30;99.90;;;;;;4919327;29;20114;-92
2021/09/21 01:29:00;;;;;;;5.90;2.00;;;11.30;99.90;;;;;;4919093;29;20083;-92
2021/09/21 01:31:26;;;;;;;6.45;1.65;;;11.40;99.90;;;;;;4935893;29;20074;-92
2021/09/21 01:33:53;;;;;;;5.72;2.17;;;11.40;99.90;;;;;;4912134;29;20411;-91
2021/09/21 01:36:22;;;;;;;8.40;1.80;;;11.50;99.90;;;;;;4916445;29;20032;-92
2021/09/21 01:38:49;;;;;;;4.40;1.60;;;11.50;99.90;;;;;;4918182;29;20084;-92
2021/09/21 01:41:15;;;;;;;4.05;1.90;;;11.50;99.90;;;;;;4918561;29;20032;-93
2021/09/21 01:43:43;;;;;;;7.05;2.70;;;11.60;99.90;;;;;;4917590;29;20390;-91
2021/09/21 01:46:09;;;;;;;4.03;1.65;;;11.60;99.90;;;;;;4918603;29;20068;-93
2021/09/21 01:48:35;;;;;;;4.38;1.60;;;11.60;99.90;;;;;;4918035;29;20020;-92
2021/09/21 01:51:04;;;;;;;4.60;1.65;;;11.60;99.90;;;;;;4917607;29;20032;-91
2021/09/21 01:54:15;;;;;;;7.38;1.77;;;11.60;99.90;;;;;;4918139;29;20035;-92
2021/09/21 01:59:02;;;;;;;5.35;1.90;;;11.60;99.90;;;;;;4918542;29;20084;-92
2021/09/21 02:01:28;;;;;;;4.47;1.70;;;11.70;99.90;;;;;;4917489;29;20051;-92
2021/09/21 02:03:56;;;;;;;10.07;3.47;;;11.70;99.90;;;;;;4917685;29;20036;-92
2021/09/21 02:06:28;;;;;;;8.40;3.53;;;11.80;99.90;;;;;;4917571;29;20170;-92
2021/09/21 02:08:54;;;;;;;7.15;4.15;;;11.90;99.90;;;;;;4917981;29;20107;-92
2021/09/21 02:11:19;;;;;;;9.55;4.07;;;12.00;99.90;;;;;;4919086;29;20176;-91
2021/09/21 02:13:45;;;;;;;14.13;4.78;;;12.00;99.90;;;;;;4920266;29;20091;-91
2021/09/21 02:16:11;;;;;;;11.90;5.90;;;12.10;99.90;;;;;;4919656;29;20561;-92
2021/09/21 02:18:37;;;;;;;12.48;6.03;;;12.20;99.90;;;;;;4904430;29;20035;-90
2021/09/21 02:21:02;;;;;;;10.55;5.25;;;12.30;99.90;;;;;;4920201;29;20036;-92
2021/09/21 02:23:28;;;;;;;16.90;9.73;;;12.40;99.90;;;;;;4920077;29;20029;-91
2021/09/21 02:25:54;;;;;;;19.63;11.07;;;12.40;99.90;;;;;;4919689;29;20483;-92
2021/09/21 02:28:20;;;;;;;19.55;11.73;;;12.50;99.90;;;;;;4919211;29;20036;-91
2021/09/21 02:30:45;;;;;;;25.80;12.65;;;12.60;99.90;;;;;;4919321;29;20036;-92
2021/09/21 02:33:12;;;;;;;15.85;7.97;;;12.60;99.90;;;;;;4919472;29;20151;-91
2021/09/21 02:35:39;;;;;;;23.52;11.38;;;12.60;99.90;;;;;;4919535;29;20025;-92
2021/09/21 02:38:05;;;;;;;21.65;10.98;;;12.70;99.90;;;;;;4919429;29;20040;-91
2021/09/21 02:40:31;;;;;;;23.02;11.70;;;12.70;99.90;;;;;;4919519;29;20068;-92
2021/09/21 02:42:57;;;;;;;20.80;11.43;;;12.70;99.90;;;;;;4919086;29;20060;-92
2021/09/21 02:45:23;;;;;;;20.33;10.73;;;12.70;99.90;;;;;;4919369;29;20028;-93
2021/09/21 02:47:49;;;;;;;18.60;10.00;;;12.70;99.90;;;;;;4919117;29;20071;-94
2021/09/21 02:50:15;;;;;;;22.80;9.70;;;12.70;99.90;;;;;;4920391;29;20035;-91
2021/09/21 02:52:42;;;;;;;25.70;11.07;;;12.70;99.90;;;;;;4919101;29;20051;-93
2021/09/21 02:55:08;;;;;;;18.83;9.68;;;12.70;99.90;;;;;;4919743;29;20028;-93
2021/09/21 02:57:34;;;;;;;18.73;10.02;;;12.70;99.90;;;;;;4919896;29;20033;-92
2021/09/21 03:00:02;;;;;;;20.30;11.48;;;12.70;99.90;;;;;;4925069;29;20029;-92
2021/09/21 03:02:31;;;;;;;24.92;11.50;;;12.70;99.90;;;;;;4934906;29;20032;-93
2021/09/21 03:05:00;;;;;;;23.23;12.20;;;12.70;99.90;;;;;;4935459;29;20032;-92
2021/09/21 03:07:48;;;;;;;24.00;11.80;;;12.70;99.90;;;;;;4937216;29;20024;-91
2021/09/21 03:10:25;;;;;;;20.98;11.75;;;12.80;99.90;;;;;;4935592;29;20024;-92
2021/09/21 03:18:03;;;;;;;25.92;12.68;;;12.80;99.90;;;;;;4940639;29;20035;-92
2021/09/21 03:20:30;;;;;;;26.30;12.48;;;12.80;99.90;;;;;;4942199;29;20032;-93
2021/09/21 03:22:56;;;;;;;29.75;13.52;;;12.80;99.90;;;;;;4938077;29;20168;-92
2021/09/21 03:25:22;;;;;;;21.60;11.55;;;12.80;99.90;;;;;;4933191;29;20035;-91
2021/09/21 03:27:47;;;;;;;28.60;12.27;;;12.80;99.90;;;;;;4923416;29;20028;-91
2021/09/21 03:30:14;;;;;;;23.98;11.95;;;12.80;99.90;;;;;;4921541;29;20147;-92
2021/09/21 03:32:41;;;;;;;31.13;13.70;;;12.80;99.90;;;;;;4924274;29;20044;-90
2021/09/21 03:35:07;;;;;;;24.10;12.70;;;12.80;99.90;;;;;;4922856;29;20039;-91
2021/09/21 03:37:34;;;;;;;29.77;12.48;;;12.80;99.90;;;;;;4923393;29;20032;-92
2021/09/21 03:39:59;;;;;;;23.52;12.25;;;12.80;99.90;;;;;;4922924;29;20028;-93
2021/09/21 03:42:25;;;;;;;29.10;13.43;;;12.80;99.90;;;;;;4922508;29;20111;-93
2021/09/21 03:44:51;;;;;;;21.80;12.02;;;12.80;99.90;;;;;;4922265;29;20398;-91
2021/09/21 03:47:16;;;;;;;31.02;13.52;;;12.90;99.90;;;;;;4922632;29;20039;-92
2021/09/21 03:49:42;;;;;;;18.27;10.68;;;12.90;99.90;;;;;;4922584;29;20032;-91
2021/09/21 03:52:09;;;;;;;20.00;11.65;;;12.90;99.90;;;;;;4938672;29;20032;-92
2021/09/21 03:54:35;;;;;;;18.40;9.85;;;13.00;99.90;;;;;;4921276;29;20039;-92
2021/09/21 03:57:01;;;;;;;20.75;11.18;;;13.00;99.90;;;;;;4920898;29;20020;-92
2021/09/21 03:59:27;;;;;;;26.65;12.23;;;13.10;99.90;;;;;;4920944;29;20035;-93
2021/09/21 04:01:53;;;;;;;19.67;10.27;;;13.10;99.90;;;;;;4920166;29;20075;-91
2021/09/21 04:04:19;;;;;;;18.02;8.82;;;13.10;99.90;;;;;;4920227;29;20031;-92
2021/09/21 04:06:46;;;;;;;19.55;10.30;;;13.20;99.90;;;;;;4937071;29;20027;-92
2021/09/21 04:09:12;;;;;;;20.52;10.02;;;13.20;99.90;;;;;;4920048;29;20491;-92
2021/09/21 04:11:38;;;;;;;20.70;10.57;;;13.20;99.90;;;;;;4937381;29;20035;-93
2021/09/21 04:14:06;;;;;;;25.30;11.98;;;13.30;99.90;;;;;;4920792;29;20192;-93
2021/09/21 04:16:32;;;;;;;17.77;9.80;;;13.30;99.90;;;;;;4922213;29;20039;-93
2021/09/21 04:18:58;;;;;;;15.38;8.27;;;13.30;99.90;;;;;;4921654;29;20039;-91
2021/09/21 04:21:24;;;;;;;12.48;6.43;;;13.30;99.90;;;;;;4927846;29;20079;-92
2021/09/21 04:23:50;;;;;;;13.70;6.45;;;13.30;99.90;;;;;;4930840;29;20023;-93
2021/09/21 04:26:16;;;;;;;10.23;5.93;;;13.20;99.90;;;;;;4929840;29;20039;-93
2021/09/21 04:28:42;;;;;;;21.70;7.90;;;13.20;99.90;;;;;;4926357;29;20036;-91
2021/09/21 04:31:09;;;;;;;15.38;8.43;;;13.10;99.90;;;;;;4927173;29;20028;-91
2021/09/21 04:33:36;;;;;;;18.70;7.90;;;13.10;99.90;;;;;;4937621;29;20047;-93
2021/09/21 04:36:08;;;;;;;16.65;8.75;;;13.10;99.90;;;;;;4922390;29;20036;-93
2021/09/21 04:38:34;;;;;;;16.73;7.65;;;13.10;99.90;;;;;;4921052;29;20036;-93
2021/09/21 04:41:00;;;;;;;20.10;7.90;;;13.20;99.90;;;;;;4920848;29;20039;-92
2021/09/21 04:43:26;;;;;;;20.58;8.32;;;13.20;99.90;;;;;;4920788;29;20035;-93
2021/09/21 04:45:52;;;;;;;16.08;7.30;;;13.30;99.90;;;;;;4920658;29;20512;-92
2021/09/21 04:48:18;;;;;;;18.63;7.90;;;13.30;99.90;;;;;;4920382;29;20023;-92
2021/09/21 04:50:44;;;;;;;15.02;8.35;;;13.20;99.90;;;;;;4937151;29;20123;-91
2021/09/21 04:53:10;;;;;;;17.55;7.30;;;13.20;99.90;;;;;;4920462;29;20030;-92
2021/09/21 04:55:35;;;;;;;16.42;8.38;;;13.20;99.90;;;;;;4936839;29;20039;-93
2021/09/21 04:58:01;;;;;;;16.27;8.02;;;13.20;99.90;;;;;;4920043;29;20024;-93
2021/09/21 05:00:27;;;;;;;13.15;6.55;;;13.20;99.90;;;;;;4919894;29;20099;-91
2021/09/21 05:02:53;;;;;;;12.75;6.22;;;13.30;99.90;;;;;;4920337;29;20204;-91
2021/09/21 05:05:20;;;;;;;22.48;6.53;;;13.30;99.90;;;;;;4919610;29;20030;-93
2021/09/21 05:07:46;;;;;;;17.95;7.40;;;13.30;99.90;;;;;;4920012;29;20047;-91
2021/09/21 05:10:11;;;;;;;16.30;6.05;;;13.30;99.90;;;;;;4936805;29;20027;-91
2021/09/21 05:12:37;;;;;;;7.38;3.88;;;13.30;99.90;;;;;;4920369;29;20032;-92
2021/09/21 05:15:04;;;;;;;16.85;7.18;;;13.30;99.90;;;;;;4921248;29;20039;-90
2021/09/21 05:17:30;;;;;;;11.25;6.63;;;13.30;99.90;;;;;;4920469;29;20075;-92
2021/09/21 05:19:55;;;;;;;17.17;6.65;;;13.30;99.90;;;;;;4920012;29;20432;-93
2021/09/21 05:22:22;;;;;;;13.02;6.07;;;13.30;99.90;;;;;;4919479;29;20399;-91
2021/09/21 05:24:48;;;;;;;13.88;6.70;;;13.20;99.90;;;;;;4919545;29;20031;-92
2021/09/21 05:27:13;;;;;;;12.75;5.72;;;13.20;99.90;;;;;;4919372;29;20576;-92
2021/09/21 05:29:39;;;;;;;12.95;7.20;;;13.20;99.90;;;;;;4937649;29;20035;-91
2021/09/21 05:32:05;;;;;;;16.88;7.63;;;13.20;99.90;;;;;;4920600;29;20537;-92
2021/09/21 05:34:31;;;;;;;17.10;7.25;;;13.20;99.90;;;;;;4914511;29;20569;-93
2021/09/21 05:36:56;;;;;;;15.18;7.05;;;13.20;99.90;;;;;;4916171;29;20067;-93
2021/09/21 05:39:22;;;;;;;9.65;5.97;;;13.10;99.90;;;;;;4916422;29;20028;-94
2021/09/21 05:41:47;;;;;;;14.57;7.85;;;13.10;99.90;;;;;;4917822;29;20080;-90
2021/09/21 05:44:13;;;;;;;12.85;7.55;;;13.10;99.90;;;;;;4918437;29;20039;-93
2021/09/21 05:46:39;;;;;;;14.02;6.97;;;13.10;99.90;;;;;;4917458;29;20043;-94
2021/09/21 05:49:05;;;;;;;17.25;7.38;;;13.10;99.90;;;;;;4918148;29;20056;-93
2021/09/21 05:51:31;;;;;;;13.70;6.97;;;13.10;99.90;;;;;;4917017;29;20032;-92
2021/09/21 05:53:57;;;;;;;12.25;5.93;;;13.10;99.90;;;;;;4920953;29;20449;-93
2021/09/21 05:56:29;;;;;;;16.63;7.38;;;13.10;99.90;;;;;;4928334;29;20019;-89
2021/09/21 05:58:56;;;;;;;16.08;6.03;;;13.10;99.90;;;;;;4919890;29;20478;-90
2021/09/21 06:01:22;;;;;;;11.82;5.75;;;13.10;99.90;;;;;;4916167;29;20051;-92
2021/09/21 06:03:48;;;;;;;14.00;6.60;;;13.10;99.90;;;;;;4915949;29;20028;-92
2021/09/21 06:06:13;;;;;;;13.05;5.60;;;13.20;99.90;;;;;;4916114;29;20183;-91
2021/09/21 06:08:39;;;;;;;11.43;6.25;;;13.10;99.90;;;;;;4915092;29;20047;-90
2021/09/21 06:11:05;;;;;;;10.35;5.07;;;13.10;99.90;;;;;;4914933;29;20024;-89
2021/09/21 06:13:30;;;;;;;12.90;5.40;;;13.10;99.90;;;;;;4915039;29;20068;-88
2021/09/21 06:15:56;;;;;;;7.95;4.70;;;13.10;99.90;;;;;;4915983;29;20043;-91
2021/09/21 06:18:22;;;;;;;14.10;4.65;;;13.10;99.90;;;;;;4914495;29;21530;-91
2021/09/21 06:20:48;;;;;;;14.32;6.57;;;13.10;99.90;;;;;;4919756;29;20039;-91
2021/09/21 06:23:14;;;;;;;14.38;6.60;;;13.10;99.90;;;;;;4914535;29;20535;-91
2021/09/21 06:25:40;;;;;;;10.23;5.43;;;13.10;99.90;;;;;;4914205;29;20020;-91
2021/09/21 06:28:07;;;;;;;15.43;6.47;;;13.10;99.90;;;;;;4915623;29;20060;-91
2021/09/21 06:30:33;;;;;;;11.75;6.43;;;13.10;99.90;;;;;;4914312;29;20032;-91
2021/09/21 06:32:59;;;;;;;13.38;6.30;;;13.10;99.90;;;;;;4914410;29;20091;-91
2021/09/21 06:35:25;;;;;;;9.25;5.20;;;13.10;99.90;;;;;;4914735;29;20028;-91
2021/09/21 06:37:50;;;;;;;15.30;6.55;;;13.10;99.90;;;;;;4916166;29;20048;-90
2021/09/21 06:40:16;;;;;;;14.43;5.65;;;13.10;99.90;;;;;;4914309;29;20418;-90
2021/09/21 06:42:43;;;;;;;14.07;5.82;;;13.10;99.90;;;;;;4914599;29;20075;-92
2021/09/21 06:45:13;;;;;;;15.20;6.35;;;13.20;99.90;;;;;;4915728;29;20042;-91
2021/09/21 06:47:39;;;;;;;12.52;6.05;;;13.20;99.90;;;;;;4915497;29;20031;-91
2021/09/21 06:50:05;;;;;;;18.38;6.25;;;13.20;99.90;;;;;;4917062;29;20036;-91
2021/09/21 06:52:31;;;;;;;14.85;6.93;;;13.30;99.90;;;;;;4916038;29;20032;-91
2021/09/21 06:54:57;;;;;;;20.45;6.03;;;13.30;99.90;;;;;;4916516;29;20397;-91
2021/09/21 06:57:23;;;;;;;11.98;4.97;;;13.30;99.90;;;;;;4917460;29;20032;-93
2021/09/21 06:59:49;;;;;;;12.25;4.50;;;13.30;99.90;;;;;;4932007;29;20035;-92
2021/09/21 07:02:14;;;;;;;13.80;4.93;;;13.40;99.90;;;;;;4929353;29;20135;-92
2021/09/21 07:04:40;;;;;;;8.98;4.50;;;13.40;99.90;;;;;;4927630;29;20039;-93
2021/09/21 07:07:06;;;;;;;15.85;5.10;;;13.40;99.90;;;;;;4930067;29;20031;-96
2021/09/21 07:09:32;;;;;;;11.52;5.45;;;13.50;99.90;;;;;;4938193;29;20500;-91
2021/09/21 07:11:57;;;;;;;10.93;4.15;;;13.60;99.90;;;;;;4931525;29;20105;-91
2021/09/21 07:14:23;;;;;;;17.08;4.88;;;13.60;99.90;;;;;;4918715;29;20028;-93
2021/09/21 07:16:48;;;;;;;14.32;4.20;;;13.60;99.90;;;;;;4909172;29;20115;-93
2021/09/21 07:19:16;;;;;;;15.30;5.18;;;13.70;99.90;;;;;;4917852;29;20091;-93
2021/09/21 07:21:43;;;;;;;12.68;4.30;;;13.70;99.90;;;;;;4918051;29;20095;-92
2021/09/21 07:24:09;;;;;;;10.50;4.07;;;13.80;99.90;;;;;;4918063;29;20055;-92
2021/09/21 07:26:34;;;;;;;6.50;2.95;;;13.90;99.90;;;;;;4923359;29;20427;-92
2021/09/21 07:29:00;;;;;;;8.80;3.20;;;13.90;99.90;;;;;;4917612;29;20028;-92
2021/09/21 07:31:26;;;;;;;7.30;2.70;;;14.00;99.90;;;;;;4903284;29;20442;-93
2021/09/21 07:33:52;;;;;;;8.35;2.97;;;14.10;99.90;;;;;;4918945;29;20506;-93
2021/09/21 07:36:17;;;;;;;8.90;3.28;;;14.20;99.90;;;;;;4917658;29;20043;-92
2021/09/21 07:38:43;;;;;;;8.68;2.63;;;14.20;99.90;;;;;;4918362;29;20645;-93
2021/09/21 07:41:09;;;;;;;7.75;2.47;;;14.30;99.90;;;;;;4918270;29;20402;-93
2021/09/21 07:43:35;;;;;;;12.32;2.92;;;14.40;99.90;;;;;;4918811;29;20033;-93
2021/09/21 07:46:00;;;;;;;8.48;2.63;;;14.50;99.90;;;;;;4919451;29;20028;-92
2021/09/21 07:48:26;;;;;;;9.55;2.15;;;14.50;99.90;;;;;;4918656;29;20375;-89
2021/09/21 07:50:53;;;;;;;6.25;2.45;;;14.60;99.90;;;;;;4919485;29;20028;-91
2021/09/21 07:53:18;;;;;;;6.47;2.50;;;14.70;99.90;;;;;;4921277;29;20047;-90
2021/09/21 07:55:44;;;;;;;7.55;2.58;;;14.70;99.90;;;;;;4918359;29;20044;-91
2021/09/21 07:58:10;;;;;;;8.30;3.10;;;14.80;99.90;;;;;;4918968;29;20024;-90
2021/09/21 08:00:38;;;;;;;10.02;2.75;;;14.90;99.90;;;;;;4924226;29;20032;-92
2021/09/21 08:03:04;;;;;;;8.55;2.80;;;14.90;99.90;;;;;;4931218;29;20056;-91
2021/09/21 08:05:29;;;;;;;6.45;2.40;;;15.00;99.90;;;;;;4931719;29;20125;-92
2021/09/21 08:07:55;;;;;;;10.18;2.70;;;15.00;99.90;;;;;;4923085;29;20119;-93
2021/09/21 08:10:21;;;;;;;10.38;2.90;;;15.00;99.90;;;;;;4926040;29;20446;-91
2021/09/21 08:12:48;;;;;;;11.00;2.80;;;15.10;99.90;;;;;;4928474;29;20032;-93
2021/09/21 08:15:14;;;;;;;7.95;2.22;;;15.10;99.90;;;;;;4924954;29;20095;-95
2021/09/21 08:17:40;;;;;;;9.73;3.33;;;15.10;99.90;;;;;;4920664;29;20024;-92
2021/09/21 08:20:07;;;;;;;8.32;2.70;;;15.20;99.90;;;;;;4920008;29;20024;-90
2021/09/21 08:22:33;;;;;;;14.43;2.95;;;15.30;99.90;;;;;;4920508;29;20036;-92
2021/09/21 08:25:00;;;;;;;8.00;3.10;;;15.30;99.90;;;;;;4919768;29;20028;-92
2021/09/21 08:27:26;;;;;;;12.32;3.13;;;15.40;99.90;;;;;;4921574;29;20041;-91
2021/09/21 08:29:52;;;;;;;10.15;2.80;;;15.40;99.90;;;;;;4920212;29;20055;-93
2021/09/21 08:32:18;;;;;;;10.70;2.67;;;15.40;99.90;;;;;;4920991;29;20142;-92
2021/09/21 08:34:44;;;;;;;10.15;2.75;;;15.50;99.90;;;;;;4940676;29;20036;-94
2021/09/21 08:37:09;;;;;;;11.88;2.83;;;15.50;99.90;;;;;;4938586;29;20485;-93
2021/09/21 08:39:35;;;;;;;8.10;2.70;;;15.60;99.90;;;;;;4937774;29;20027;-91
2021/09/21 08:42:01;;;;;;;12.75;2.50;;;15.60;99.90;;;;;;4937819;29;20071;-91
2021/09/21 08:44:26;;;;;;;8.40;3.05;;;15.70;99.90;;;;;;4937449;29;20031;-91
2021/09/21 08:46:52;;;;;;;13.68;2.90;;;15.70;99.90;;;;;;4938716;29;20055;-91
2021/09/21 08:49:18;;;;;;;13.10;2.92;;;15.80;99.90;;;;;;4937410;29;20062;-94
2021/09/21 08:51:45;;;;;;;9.80;3.33;;;15.90;99.90;;;;;;4937727;29;20127;-92
2021/09/21 08:54:11;;;;;;;7.18;2.65;;;15.90;99.90;;;;;;4937551;29;20024;-93
2021/09/21 08:56:37;;;;;;;8.23;2.72;;;16.00;99.90;;;;;;4937862;29;20094;-92
2021/09/21 08:59:07;;;;;;;10.48;2.97;;;16.00;99.90;;;;;;4938513;29;20024;-91
2021/09/21 09:01:47;;;;;;;7.10;2.35;;;16.10;99.90;;;;;;4936744;29;20107;-92
2021/09/21 09:04:15;;;;;;;10.57;2.53;;;16.20;99.90;;;;;;4936793;29;20040;-92
2021/09/21 09:06:46;;;;;;;11.32;3.13;;;16.30;99.90;;;;;;4936387;29;20023;-92
2021/09/21 09:09:17;;;;;;;12.23;2.80;;;16.30;99.90;;;;;;4937649;29;20367;-92
2021/09/21 09:11:47;;;;;;;12.95;3.35;;;16.40;99.90;;;;;;4936916;29;20095;-93
2021/09/21 09:14:47;;;;;;;12.70;2.70;;;16.40;99.90;;;;;;4937658;29;20035;-91
2021/09/21 09:17:13;;;;;;;8.93;2.70;;;16.40;99.90;;;;;;4933610;29;20043;-90
2021/09/21 09:19:45;;;;;;;10.48;2.95;;;16.50;99.90;;;;;;4935846;29;20059;-91
2021/09/21 09:22:22;;;;;;;9.80;2.30;;;16.60;99.90;;;;;;4937169;29;20122;-92
2021/09/21 09:24:56;;;;;;;11.30;2.47;;;16.70;99.90;;;;;;4936076;29;20071;-92
2021/09/21 09:27:34;;;;;;;12.48;3.08;;;16.70;99.90;;;;;;4936408;29;20242;-92
2021/09/21 09:30:03;;;;;;;15.70;2.47;;;16.80;99.90;;;;;;4935952;29;20027;-92
2021/09/21 09:32:28;;;;;;;13.13;2.55;;;16.90;99.90;;;;;;4935965;29;20406;-92
2021/09/21 09:34:58;;;;;;;13.95;2.72;;;17.00;99.90;;;;;;4934319;29;20046;-93
2021/09/21 09:37:24;;;;;;;15.93;3.13;;;17.10;99.90;;;;;;4916259;29;20032;-92
2021/09/21 09:39:59;;;;;;;12.63;2.80;;;17.10;99.90;;;;;;4916839;29;20031;-92
2021/09/21 09:42:25;;;;;;;11.85;2.80;;;17.20;99.90;;;;;;4917045;29;20072;-92
2021/09/21 09:44:50;;;;;;;12.55;2.72;;;17.30;99.90;;;;;;4935907;29;20020;-92
2021/09/21 09:47:16;;;;;;;16.77;3.75;;;17.40;99.90;;;;;;4936993;29;20515;-91
2021/09/21 09:49:45;;;;;;;9.40;2.25;;;17.50;99.90;;;;;;4937919;29;20059;-91
2021/09/21 09:52:18;;;;;;;7.70;2.13;;;17.60;99.90;;;;;;4936876;29;20063;-92
2021/09/21 09:54:48;;;;;;;9.60;2.50;;;17.70;99.90;;;;;;4936139;29;20464;-91
2021/09/21 09:57:15;;;;;;;8.10;2.72;;;17.80;99.90;;;;;;4936485;29;20074;-92
2021/09/21 09:59:41;;;;;;;9.52;2.45;;;18.00;99.90;;;;;;4938823;29;20059;-91
2021/09/21 10:02:08;;;;;;;13.35;2.90;;;18.00;99.90;;;;;;4936008;29;20044;-92
2021/09/21 10:04:34;;;;;;;5.80;2.10;;;18.10;99.40;;;;;;4932587;29;20130;-92
2021/09/21 10:07:00;;;;;;;8.70;2.75;;;18.20;98.80;;;;;;4916446;29;20452;-93
2021/09/21 10:09:26;;;;;;;12.10;2.60;;;18.30;98.40;;;;;;4916125;29;20020;-93
2021/09/21 10:12:08;;;;;;;10.23;2.40;;;18.30;98.10;;;;;;4916898;29;20043;-92
2021/09/21 10:14:34;;;;;;;13.15;2.55;;;18.40;97.70;;;;;;4916022;29;20055;-92
2021/09/21 10:17:05;;;;;;;11.13;2.65;;;18.50;97.40;;;;;;4915339;29;20375;-91
2021/09/21 10:19:36;;;;;;;8.48;2.35;;;18.50;97.00;;;;;;4916432;29;20021;-90
2021/09/21 10:22:03;;;;;;;8.35;2.20;;;18.70;96.60;;;;;;4916113;29;20044;-91
2021/09/21 10:24:48;;;;;;;8.45;2.17;;;18.80;96.10;;;;;;4916332;29;20471;-91
2021/09/21 10:27:18;;;;;;;17.38;3.20;;;18.90;95.30;;;;;;4913820;29;20112;-91
2021/09/21 10:29:44;;;;;;;8.45;2.33;;;19.10;95.10;;;;;;4915723;29;20020;-91
2021/09/21 10:32:15;;;;;;;10.95;2.38;;;19.20;94.70;;;;;;4915381;29;20043;-91
2021/09/21 10:34:43;;;;;;;8.93;2.17;;;19.30;93.80;;;;;;4921153;29;20043;-91
2021/09/21 10:37:15;;;;;;;18.35;2.67;;;19.30;93.40;;;;;;4923860;29;20035;-93
2021/09/21 10:39:41;;;;;;;11.90;2.72;;;19.30;92.70;;;;;;4940343;29;20016;-92
2021/09/21 10:42:13;;;;;;;9.68;2.20;;;19.30;92.30;;;;;;4922693;29;20042;-92
2021/09/21 10:44:51;;;;;;;15.45;2.92;;;19.30;92.10;;;;;;4909212;29;20030;-93
2021/09/21 10:47:24;;;;;;;7.55;2.50;;;19.30;92.00;;;;;;4921812;29;20028;-91
2021/09/21 10:49:50;;;;;;;13.60;3.20;;;19.40;92.00;;;;;;4920695;29;20028;-92
2021/09/21 10:52:19;;;;;;;7.85;2.70;;;19.50;91.60;;;;;;4920814;29;20027;-91
2021/09/21 10:54:57;;;;;;;10.82;2.22;;;19.70;91.50;;;;;;4921616;29;20062;-92
2021/09/21 10:57:26;;;;;;;8.68;2.35;;;19.90;91.10;;;;;;4920537;29;20165;-92
2021/09/21 11:00:08;;;;;;;9.27;2.80;;;20.10;90.30;;;;;;4938240;29;20042;-92
2021/09/21 11:02:41;;;;;;;9.50;3.15;;;20.20;88.60;;;;;;4921360;29;20036;-93
2021/09/21 11:05:19;;;;;;;15.43;2.38;;;20.20;87.40;;;;;;4921716;29;20486;-92
2021/09/21 11:08:00;;;;;;;15.18;3.22;;;20.20;86.80;;;;;;4938053;29;20039;-92
2021/09/21 11:10:37;;;;;;;11.63;2.75;;;20.20;86.80;;;;;;4921757;29;20026;-93
2021/09/21 11:13:15;;;;;;;13.35;2.85;;;20.30;87.00;;;;;;4927738;29;20028;-92
2021/09/21 11:15:42;;;;;;;9.73;2.97;;;20.20;86.50;;;;;;4919001;29;20026;-92
2021/09/21 11:18:13;;;;;;;9.57;3.33;;;20.30;86.30;;;;;;4920799;29;20115;-92
2021/09/21 11:20:49;;;;;;;11.18;2.95;;;20.30;86.10;;;;;;4921374;29;20032;-93
2021/09/21 11:23:17;;;;;;;10.45;2.90;;;20.20;85.90;;;;;;4921175;29;20102;-92
2021/09/21 11:25:44;;;;;;;12.43;2.63;;;20.10;85.70;;;;;;4920987;29;20024;-93
2021/09/21 11:28:10;;;;;;;10.60;2.65;;;20.20;86.20;;;;;;4921382;29;20067;-93
2021/09/21 11:30:37;;;;;;;11.98;2.60;;;20.20;86.10;;;;;;4920822;29;20031;-92
2021/09/21 11:33:25;;;;;;;16.65;2.67;;;20.20;85.20;;;;;;4921141;29;20123;-92
2021/09/21 11:35:55;;;;;;;10.05;2.72;;;20.10;85.80;;;;;;4920434;29;20044;-91
2021/09/21 11:38:23;;;;;;;13.57;3.35;;;20.10;85.30;;;;;;4937908;29;20037;-91
2021/09/21 11:40:51;;;;;;;13.00;2.97;;;20.10;85.10;;;;;;4938667;29;20040;-92
2021/09/21 11:43:17;;;;;;;10.43;2.88;;;20.20;84.60;;;;;;4922279;29;20020;-92
2021/09/21 11:45:46;;;;;;;10.60;2.65;;;20.30;84.20;;;;;;4929344;29;20028;-91
2021/09/21 11:48:15;;;;;;;13.02;2.95;;;20.40;83.70;;;;;;4946481;29;20071;-92
2021/09/21 11:50:42;;;;;;;12.52;3.00;;;20.50;83.70;;;;;;4943222;29;20024;-92
2021/09/21 11:53:14;;;;;;;14.23;2.90;;;20.50;82.80;;;;;;4926204;29;20200;-91
2021/09/21 11:55:43;;;;;;;10.35;3.92;;;20.70;82.40;;;;;;4923048;29;20429;-91
2021/09/21 11:58:11;;;;;;;9.63;2.50;;;20.80;82.10;;;;;;4920060;29;20067;-91
2021/09/21 12:00:39;;;;;;;12.43;3.58;;;21.00;81.60;;;;;;4920491;29;20042;-93
2021/09/21 12:03:19;;;;;;;10.52;2.60;;;21.30;81.20;;;;;;4920302;29;20031;-91
2021/09/21 12:05:47;;;;;;;9.15;2.72;;;21.60;80.30;;;;;;4921448;29;20016;-92
2021/09/21 12:08:14;;;;;;;9.73;2.95;;;21.80;79.40;;;;;;4922940;29;20028;-91
2021/09/21 12:10:44;;;;;;;10.77;2.95;;;22.10;78.20;;;;;;4920721;29;20023;-92
2021/09/21 12:13:16;;;;;;;8.63;2.40;;;22.30;77.50;;;;;;4920383;29;20047;-93
2021/09/21 12:15:47;;;;;;;14.10;3.13;;;22.50;76.60;;;;;;4919846;29;20091;-93
2021/09/21 12:18:14;;;;;;;11.80;3.42;;;22.70;75.40;;;;;;4936849;29;20143;-92
2021/09/21 12:20:42;;;;;;;16.45;3.10;;;22.70;74.60;;;;;;4919173;29;20042;-92
2021/09/21 12:23:10;;;;;;;11.38;2.42;;;22.70;74.10;;;;;;4919678;29;20032;-92
2021/09/21 12:25:39;;;;;;;9.25;2.72;;;22.50;73.60;;;;;;4919630;29;20043;-92
2021/09/21 12:28:07;;;;;;;10.65;2.40;;;22.40;74.10;;;;;;4918794;29;20028;-91
2021/09/21 12:30:45;;;;;;;16.55;2.65;;;22.40;74.10;;;;;;4936914;29;20036;-93
2021/09/21 12:33:14;;;;;;;12.50;3.13;;;22.40;74.00;;;;;;4915872;29;20131;-92
2021/09/21 12:35:44;;;;;;;10.00;2.28;;;22.60;74.00;;;;;;4916467;29;20028;-92
2021/09/21 12:38:17;;;;;;;12.70;2.53;;;22.70;73.50;;;;;;4916528;29;20027;-94
2021/09/21 12:40:53;;;;;;;12.55;2.50;;;22.70;73.10;;;;;;4917126;29;20043;-92
2021/09/21 12:43:23;;;;;;;15.23;2.83;;;22.70;73.00;;;;;;4917576;29;20088;-94
2021/09/21 12:45:51;;;;;;;15.45;3.13;;;22.70;72.80;;;;;;4922833;29;20106;-91
2021/09/21 12:48:20;;;;;;;12.52;2.88;;;22.60;73.00;;;;;;4924170;29;20024;-90